Freycinet trail run 2019

Sunday, June 30, 2019 08:30 (GMT+10) - Final results

Race info
Sport: Running - trail
Location: Coles Bay, Australia
Start type: Manual wave start
Wave grouping: By distance
Racers: 108
Timed on: iPad
Timed with: Webscorer PRO 4.0
Updated: Monday, July 1, 2019 18:54 (GMT+10)

Contact organizer

Use this form to send an email to the organizer.

Your name
Your email address
Confirm email address
Message to organizer
Send

Freycinet trail run 2019

Place Bib Racer name Distance Age Gender Finish time
1120Thomas Murton11km Hazards circuit23M 49:05.0--100%71.71%75.47%09:00:02.8
298Phil McConnon11km Hazards circuit27M 53:20.8+4:15.8+8.69%92.01%69.26%73.34%09:00:02.8
394Nick Vincour11km Hazards circuit31M 55:40.7+6:35.7+13.44%88.16%67.91%72.17%09:00:02.8
416Ben Young11km Hazards circuit36M 1:00:27.5+11:22.5+23.17%81.19%65.16%69.78%09:00:02.8
5106Rowan Anderson11km Hazards circuit30M 1:02:36.7+13:31.7+27.56%78.39%63.92%68.71%09:00:02.8
666Kaine Arkley11km Hazards circuit38M 1:02:52.1+13:47.1+28.08%78.07%63.77%68.58%09:00:02.8
7113Shaun Batten11km Hazards circuit42M 1:05:07.7+16:02.7+32.69%75.36%62.47%67.45%09:00:02.8
877Leigh Jessup11km Hazards circuit32M 1:06:01.5+16:56.5+34.52%74.34%61.95%67.00%09:00:02.8
963Josh Miller11km Hazards circuit29M 1:06:58.3+17:53.3+36.44%73.29%61.40%66.53%09:00:02.8
104Alex Bonde11km Hazards circuit33M 1:09:24.4+20:19.4+41.41%70.72%60.00%65.31%09:00:02.8
1143Frank Casimaty11km Hazards circuit56M 1:10:23.3+21:18.3+43.41%69.73%59.44%64.82%09:00:02.8
12119Terry Watson11km Hazards circuit56M 1:10:50.9+21:45.9+44.34%69.28%59.17%64.59%09:00:02.8
1342Flynn Austin11km Hazards circuit13M 1:11:04.3+21:59.3+44.80%69.06%59.04%64.48%09:00:02.8
1445Haydn Oakes11km Hazards circuit29M 1:11:33.4+22:28.4+45.79%68.59%58.76%64.24%09:00:02.8
15123Tony Dineen11km Hazards circuit53M 1:12:12.9+23:07.9+47.13%67.97%58.38%63.91%09:00:02.8
163Alex Ashworth Briggs11km Hazards circuit47M 1:12:21.3+23:16.3+47.41%67.84%58.30%63.84%09:00:02.8
17121Tim Bates11km Hazards circuit42M 1:12:27.6+23:22.6+47.63%67.74%58.24%63.78%09:00:02.8
182Adam Holmstrom11km Hazards circuit30M 1:13:08.7+24:03.7+49.02%67.10%57.85%63.44%09:00:02.8
195Alex Johnston11km Hazards circuit34M 1:13:26.2+24:21.2+49.62%66.84%57.68%63.30%09:00:02.8
20111Scott Jones11km Hazards circuit50M 1:14:22.0+25:17.0+51.51%66.00%57.14%62.83%09:00:02.8
2149Jake Tempo11km Hazards circuit28M 1:18:25.6+29:20.6+59.78%62.59%54.80%60.80%09:00:02.8
2296Paul Dutton11km Hazards circuit54M 1:18:32.3+29:27.3+60.01%62.50%54.74%60.75%09:00:02.8
2331David Stary11km Hazards circuit69M 1:19:05.9+30:00.9+61.15%62.05%54.42%60.47%09:00:02.8
24122Tim Scott11km Hazards circuit51M 1:19:49.7+30:44.7+62.64%61.49%54.00%60.10%09:00:02.8
2525Chris Longden11km Hazards circuit30M 1:20:29.5+31:24.5+63.99%60.98%53.61%59.77%09:00:02.8
2682Mark Austin11km Hazards circuit39M 1:21:07.2+32:02.2+65.27%60.51%53.25%59.46%09:00:02.8
27103Richard Pickup11km Hazards circuit69M 1:23:09.7+34:04.7+69.43%59.02%52.07%58.44%09:00:02.8
2883Matt Groves11km Hazards circuit37M 1:23:15.6+34:10.6+69.63%58.95%52.02%58.39%09:00:02.8
29297Shane Hanson11km Hazards circuit54M 1:23:27.2+34:22.2+70.02%58.82%51.91%58.29%09:00:02.8
30115Simon Schorn11km Hazards circuit46M 1:23:45.1+34:40.1+70.63%58.61%51.73%58.14%09:00:02.8
3113Anthony Kline11km Hazards circuit43M 1:24:22.9+35:17.9+71.92%58.17%51.37%57.83%09:00:02.8
3227Craig Harvey11km Hazards circuit54M 1:26:08.9+37:03.9+75.51%56.98%50.35%56.94%09:00:02.8
339Andrew Jones11km Hazards circuit43M 1:27:46.5+38:41.5+78.83%55.92%49.42%56.13%09:00:02.8
3461John Ballantyne11km Hazards circuit58M 1:30:14.2+41:09.2+83.84%54.39%48.00%54.90%09:00:02.8
3546Haydyn Bevis11km Hazards circuit52M 1:30:20.8+41:15.8+84.07%54.33%47.93%54.84%09:00:02.8
3634Duane O’Brien11km Hazards circuit49M 1:30:41.0+41:36.0+84.75%54.13%47.74%54.68%09:00:02.8
3753Jarrah Van Rijswijk11km Hazards circuit36M 1:31:08.8+42:03.8+85.70%53.85%47.47%54.45%09:00:02.8
3828Daniel Chia11km Hazards circuit60M 1:33:51.1+44:46.1+91.21%52.30%45.91%53.09%09:00:02.8
3997Paul Gambles11km Hazards circuit64M 1:43:18.0+54:13.0+110.46%47.52%40.47%48.37%09:00:02.8
40128Mark Quarrell11km Hazards circuit51M 1:48:45.4+59:40.4+121.58%45.13%37.32%45.64%09:00:02.8
4188Mitchell Farr11km Hazards circuit37M 1:52:01.5+1:02:56.5+128.23%43.81%35.44%44.01%09:00:02.8
4293Nathen Youd11km Hazards circuit40M 2:02:48.9+1:13:43.9+150.22%39.97%29.22%38.62%09:00:02.8
43217Damon Whish-Wilson29km Freycinet circuit22M 2:40:50.0+1:51:45.0+227.67%30.52%7.31%19.62%08:30:02.7
44221David Bailey29km Freycinet circuit28M 2:45:05.8+1:56:00.8+236.36%29.73%4.86%17.49%08:30:02.7
45303Titch Hagger29km Freycinet circuit26M 2:51:50.6+2:02:45.6+250.11%28.56%0.97%14.11%08:30:02.7
46215Damien Messmer29km Freycinet circuit22M 2:56:22.0+2:07:17.0+259.32%27.83%-1.64%11.85%08:30:02.7
47300Thomas Hawthorne29km Freycinet circuit43M 2:58:36.2+2:09:31.2+263.88%27.48%-2.93%10.73%08:30:02.7
48290Peter Johnson29km Freycinet circuit49M 2:58:38.6+2:09:33.6+263.96%27.48%-2.95%10.71%08:30:02.7
49252John Claridge29km Freycinet circuit39M 2:59:05.2+2:10:00.2+264.86%27.41%-3.21%10.49%08:30:02.7
50237Ian Parker29km Freycinet circuit39M 2:59:21.4+2:10:16.4+265.41%27.37%-3.36%10.36%08:30:02.7
51253John Crawford29km Freycinet circuit39M 3:09:21.0+2:20:16.0+285.77%25.92%-9.12%5.36%08:30:02.7
52254John Dewing29km Freycinet circuit40M 3:10:17.5+2:21:12.5+287.69%25.79%-9.66%4.89%08:30:02.7
53234Gerard O'Sullivan29km Freycinet circuit36M 3:18:28.4+2:29:23.4+304.36%24.73%-14.38%0.80%08:30:02.7
54251John Cannell29km Freycinet circuit48M 3:18:43.9+2:29:38.9+304.89%24.70%-14.53%0.67%08:30:02.7
55245Jesper Tangen29km Freycinet circuit38M 3:21:25.8+2:32:20.8+310.38%24.37%-16.08%-0.67%08:30:02.7
56301Tim Boyle29km Freycinet circuit28M 3:23:19.8+2:34:14.8+314.25%24.14%-17.18%-1.62%08:30:02.7
57206Austin O'Byrne29km Freycinet circuit52M 3:25:22.4+2:36:17.4+318.42%23.90%-18.36%-2.65%08:30:02.7
58233Gene Graham29km Freycinet circuit43M 3:29:43.2+2:40:38.2+327.27%23.40%-20.86%-4.82%08:30:02.7
59224Derry Doyle29km Freycinet circuit28M 3:30:58.0+2:41:53.0+329.81%23.27%-21.58%-5.44%08:30:02.7
60218Dan Van Der Vlist29km Freycinet circuit32M 3:33:58.2+2:44:53.2+335.93%22.94%-23.31%-6.94%08:30:02.7
61220Daniel Milner29km Freycinet circuit35M 3:37:11.2+2:48:06.2+342.49%22.60%-25.16%-8.55%08:30:02.7
62214Colin Dewhurst29km Freycinet circuit45M 3:37:44.2+2:48:39.2+343.61%22.54%-25.48%-8.82%08:30:02.7
63306Vaughan Andrews29km Freycinet circuit51M 3:40:42.6+2:51:37.6+349.66%22.24%-27.19%-10.31%08:30:02.7
64230Evan Ollerenshaw29km Freycinet circuit43M 3:41:17.3+2:52:12.3+350.84%22.18%-27.53%-10.60%08:30:02.7
65129Patrick Foley-Donoghue29km Freycinet circuit28M 3:42:23.7+2:53:18.7+353.10%22.07%-28.17%-11.15%08:30:02.7
66266Leigh Geale29km Freycinet circuit36M 3:43:05.6+2:54:00.6+354.52%22.00%-28.57%-11.50%08:30:02.7
67248Jim Finlay29km Freycinet circuit52M 3:44:06.5+2:55:01.5+356.59%21.90%-29.15%-12.01%08:30:02.7
68286Nick Clark29km Freycinet circuit32M 3:44:10.3+2:55:05.3+356.72%21.90%-29.19%-12.04%08:30:02.7
69294Rob Youl29km Freycinet circuit49M 3:44:20.8+2:55:15.8+357.07%21.88%-29.29%-12.13%08:30:02.7
70231Fillipp Ostapowicz29km Freycinet circuit51M 3:44:30.8+2:55:25.8+357.41%21.86%-29.39%-12.21%08:30:02.7
71295Rodney Boxhall29km Freycinet circuit48M 3:44:42.8+2:55:37.8+357.82%21.84%-29.50%-12.31%08:30:02.7
72247Jesse Warburg29km Freycinet circuit39M 3:45:00.0+2:55:55.0+358.40%21.81%-29.67%-12.45%08:30:02.7
73235Grant McCormack29km Freycinet circuit53M 3:47:59.5+2:58:54.5+364.50%21.53%-31.39%-13.95%08:30:02.7
74274Matt Pearce29km Freycinet circuit42M 3:48:03.5+2:58:58.5+364.63%21.52%-31.43%-13.98%08:30:02.7
75256John Wilson29km Freycinet circuit58M 3:48:06.2+2:59:01.2+364.73%21.52%-31.46%-14.01%08:30:02.7
76271Marco Zanetti29km Freycinet circuit40M 3:49:03.6+2:59:58.6+366.68%21.43%-32.01%-14.48%08:30:02.7
77210Bill Chilvers29km Freycinet circuit52M 3:52:11.6+3:03:06.6+373.06%21.14%-33.81%-16.05%08:30:02.7
78299Stuart Eyles29km Freycinet circuit39M 3:52:15.1+3:03:10.1+373.18%21.13%-33.85%-16.08%08:30:02.7
79268Logan Hunt29km Freycinet circuit31M 3:53:22.4+3:04:17.4+375.46%21.03%-34.49%-16.64%08:30:02.7
80288Paul Farrow29km Freycinet circuit46M 3:55:37.6+3:06:32.6+380.05%20.83%-35.79%-17.77%08:30:02.7
81255John Pearce29km Freycinet circuit59M 3:58:52.7+3:09:47.7+386.68%20.55%-37.66%-19.39%08:30:02.7
82200Adrian Slee29km Freycinet circuit35M 4:01:55.0+3:12:50.0+392.87%20.29%-39.42%-20.91%08:30:02.7
83304Tom Bryan29km Freycinet circuit35M 4:02:22.8+3:13:17.8+393.81%20.25%-39.68%-21.14%08:30:02.7
84273Marcus Cugino29km Freycinet circuit39M 4:03:48.8+3:14:43.8+396.73%20.13%-40.51%-21.86%08:30:02.7
85284Nathan Gibb29km Freycinet circuit38M 4:06:47.9+3:17:42.9+402.81%19.89%-42.23%-23.35%08:30:02.7
86203Andrew Palfreyman29km Freycinet circuit59M 4:07:38.4+3:18:33.4+404.53%19.82%-42.71%-23.77%08:30:02.7
87207Ben Cunningham29km Freycinet circuit42M 4:08:09.5+3:19:04.5+405.59%19.78%-43.01%-24.03%08:30:02.7
88238James Darcey29km Freycinet circuit45M 4:09:27.0+3:20:22.0+408.22%19.68%-43.76%-24.67%08:30:02.7
89236Ian Brody Usher29km Freycinet circuit30M 4:09:33.6+3:20:28.6+408.44%19.67%-43.82%-24.73%08:30:02.7
90265Lance Beament29km Freycinet circuit45M 4:09:38.4+3:20:33.4+408.60%19.66%-43.87%-24.77%08:30:02.7
91208Ben Wells29km Freycinet circuit39M 4:17:05.7+3:28:00.7+423.79%19.09%-48.16%-28.50%08:30:02.7
92232Gary Maass29km Freycinet circuit59M 4:19:41.5+3:30:36.5+429.08%18.90%-49.66%-29.79%08:30:02.7
93291Ray Siauw29km Freycinet circuit40M 4:23:07.1+3:34:02.1+436.06%18.65%-51.63%-31.51%08:30:02.7
94225Doug Strohfeld29km Freycinet circuit61M 4:23:27.4+3:34:22.4+436.75%18.63%-51.83%-31.68%08:30:02.7
95239James Eddington29km Freycinet circuit35M 4:25:48.2+3:36:43.2+441.53%18.47%-53.18%-32.85%08:30:02.7
96280Michael Lees29km Freycinet circuit59M 4:26:28.0+3:37:23.0+442.89%18.42%-53.56%-33.18%08:30:02.7
97293Richard Gardner29km Freycinet circuit54M 4:28:47.1+3:39:42.1+447.61%18.26%-54.90%-34.34%08:30:02.7
98202Andrew Davies29km Freycinet circuit29M 4:31:07.0+3:42:02.0+452.36%18.10%-56.24%-35.50%08:30:02.7
99240James Flittner29km Freycinet circuit29M 4:31:31.1+3:42:26.1+453.18%18.08%-56.48%-35.70%08:30:02.7
100226Eden Ravenwood29km Freycinet circuit42M 4:32:40.5+3:43:35.5+455.53%18.00%-57.14%-36.28%08:30:02.7
101278Michael Bentley29km Freycinet circuit63M 4:37:24.0+3:48:19.0+465.16%17.69%-59.86%-38.64%08:30:02.7
102279Michael Bremner29km Freycinet circuit50M 4:37:53.6+3:48:48.6+466.17%17.66%-60.15%-38.89%08:30:02.7
103222David Campbell29km Freycinet circuit46M 4:39:59.2+3:50:54.2+470.43%17.53%-61.36%-39.94%08:30:02.7
104213Chris Massey29km Freycinet circuit40M 4:48:18.6+3:59:13.6+487.39%17.02%-66.15%-44.10%08:30:02.7
105283Mitchell Bone29km Freycinet circuit51M 5:02:37.9+4:13:32.9+516.57%16.22%-74.41%-51.25%08:30:02.7
106219Daniel Curran29km Freycinet circuit41M 5:13:11.5+4:24:06.5+538.08%15.67%-80.49%-56.53%08:30:02.7
107205Anthony McCullagh29km Freycinet circuit48M 5:13:12.8+4:24:07.8+538.13%15.67%-80.50%-56.54%08:30:02.7
108242Jason Kuys29km Freycinet circuit46M 5:36:20.9+4:47:15.9+585.26%14.59%-93.84%-68.11%08:30:02.7